Time;durP1;ratioP1;P1;durP2;ratioP2;P2;SDS_P1;SDS_P2;PMS_P1;PMS_P2;Temp;Humidity;BMP_temperature;BMP_pressure;BME280_temperature;BME280_humidity;BME280_pressure;Samples;Min_cycle;Max_cycle;Signal;HPM_P1;HPM_P2
2023/05/07 00:00:20;;;;;;;;;;;;;;;19.14;50.75;101532.13;5087035;28;19916;-85
2023/05/07 00:02:46;;;;;;;;;;;;;;;19.15;51.02;101531.25;5088947;28;20007;-85
2023/05/07 00:05:12;;;;;;;;;;;;;;;19.15;50.89;101531.25;5073671;28;19925;-85
2023/05/07 00:07:37;;;;;;;;;;;;;;;19.17;50.60;101531.31;5088149;28;20393;-86
2023/05/07 00:10:03;;;;;;;;;;;;;;;19.20;50.72;101532.31;5073417;28;20285;-86
2023/05/07 00:12:31;;;;;;;;;;;;;;;19.18;50.81;101533.13;5089830;28;19917;-86
2023/05/07 00:14:57;;;;;;;;;;;;;;;19.18;51.01;101536.66;5073367;28;19928;-85
2023/05/07 00:17:23;;;;;;;;;;;;;;;19.17;51.19;101540.16;5083999;28;19923;-85
2023/05/07 00:19:48;;;;;;;;;;;;;;;19.15;51.00;101536.53;5076249;28;20306;-86
2023/05/07 00:22:14;;;;;;;;;;;;;;;19.15;51.20;101536.53;5107795;28;20393;-86
2023/05/07 00:24:40;;;;;;;;;;;;;;;19.15;51.16;101536.53;5091482;28;19916;-86
2023/05/07 00:27:06;;;;;;;;;;;;;;;19.14;51.11;101533.88;5073376;28;19963;-86
2023/05/07 00:29:31;;;;;;;;;;;;;;;19.12;50.96;101529.41;5073208;28;20385;-86
2023/05/07 00:31:56;;;;;;;;;;;;;;;19.10;51.15;101538.16;5086063;28;19928;-87
2023/05/07 00:34:22;;;;;;;;;;;;;;;19.06;51.22;101529.22;5070603;28;20390;-86
2023/05/07 00:36:47;;;;;;;;;;;;;;;19.08;51.10;101539.88;5088360;28;20412;-86
2023/05/07 00:39:14;;;;;;;;;;;;;;;19.07;51.50;101536.31;5073269;28;19917;-86
2023/05/07 00:41:39;;;;;;;;;;;;;;;19.06;51.31;101534.50;5085812;28;19974;-86
2023/05/07 00:44:04;;;;;;;;;;;;;;;19.04;51.59;101533.56;5072060;28;19982;-86
2023/05/07 00:46:30;;;;;;;;;;;;;;;19.06;51.37;101536.28;5078597;28;20390;-86
2023/05/07 00:48:56;;;;;;;;;;;;;;;19.00;51.33;101536.97;5079671;28;20659;-86
2023/05/07 00:51:21;;;;;;;;;;;;;;;19.02;51.65;101529.09;5095101;28;19916;-86
2023/05/07 00:53:46;;;;;;;;;;;;;;;19.01;51.63;101530.84;5093676;28;19917;-85
2023/05/07 00:56:12;;;;;;;;;;;;;;;18.98;51.53;101536.00;5100185;28;19924;-86
2023/05/07 00:58:38;;;;;;;;;;;;;;;19.00;51.48;101536.97;5072190;28;19921;-86
2023/05/07 01:01:03;;;;;;;;;;;;;;;18.98;51.47;101537.78;5072513;28;20305;-86
2023/05/07 01:03:28;;;;;;;;;;;;;;;18.90;51.55;101556.03;5086898;28;20058;-85
2023/05/07 01:05:54;;;;;;;;;;;;;;;18.82;51.26;101552.28;5087058;28;19939;-84
2023/05/07 01:08:19;;;;;;;;;;;;;;;18.83;51.51;101552.31;5087849;28;20361;-85
2023/05/07 01:10:45;;;;;;;;;;;;;;;18.84;51.29;101550.56;5095539;28;19920;-86
2023/05/07 01:13:10;;;;;;;;;;;;;;;18.88;51.27;101545.44;5090974;28;19921;-86
2023/05/07 01:15:36;;;;;;;;;;;;;;;18.91;51.32;101540.22;5071071;28;19925;-86
2023/05/07 01:18:01;;;;;;;;;;;;;;;18.87;51.43;101534.78;5070023;28;19919;-86
2023/05/07 01:20:27;;;;;;;;;;;;;;;18.88;51.29;101533.91;5072757;28;19920;-86
2023/05/07 01:22:52;;;;;;;;;;;;;;;18.87;51.40;101542.72;5094613;28;20463;-86
2023/05/07 01:25:18;;;;;;;;;;;;;;;18.84;51.30;101540.00;5087882;28;19916;-86
2023/05/07 01:27:43;;;;;;;;;;;;;;;18.86;51.30;101543.59;5087524;28;20759;-86
2023/05/07 01:30:09;;;;;;;;;;;;;;;18.77;51.55;101543.22;5087672;28;19923;-86
2023/05/07 01:32:47;;;;;;;;;;;;;;;18.65;51.68;101542.00;5071739;28;20374;-86
2023/05/07 01:35:14;;;;;;;;;;;;;;;18.71;51.59;101543.91;5072054;28;20420;-86
2023/05/07 01:37:39;;;;;;;;;;;;;;;18.71;51.29;101542.19;5087260;28;20408;-86
2023/05/07 01:40:05;;;;;;;;;;;;;;;18.74;51.28;101541.38;5094834;28;19928;-86
2023/05/07 01:42:30;;;;;;;;;;;;;;;18.75;51.32;101542.28;5059113;28;19982;-86
2023/05/07 01:44:56;;;;;;;;;;;;;;;18.75;51.38;101534.34;5087329;27;20433;-86
2023/05/07 01:47:22;;;;;;;;;;;;;;;18.73;51.29;101534.28;5053574;28;19977;-86
2023/05/07 01:49:47;;;;;;;;;;;;;;;18.76;51.43;101530.88;5071535;28;19927;-86
2023/05/07 01:52:12;;;;;;;;;;;;;;;18.70;51.43;101537.72;5100308;28;20385;-87
2023/05/07 01:54:38;;;;;;;;;;;;;;;18.67;51.32;101540.28;5086922;28;20402;-86
2023/05/07 01:57:03;;;;;;;;;;;;;;;18.68;51.50;101535.91;5086942;28;19913;-86
2023/05/07 01:59:29;;;;;;;;;;;;;;;18.68;51.44;101534.13;5080466;28;19964;-86
2023/05/07 02:01:54;;;;;;;;;;;;;;;18.70;51.37;101537.72;5100126;28;20372;-86
2023/05/07 02:04:20;;;;;;;;;;;;;;;18.63;51.51;101530.47;5065753;28;19923;-86
2023/05/07 02:06:45;;;;;;;;;;;;;;;18.48;51.84;101525.56;5069327;28;19916;-86
2023/05/07 02:09:11;;;;;;;;;;;;;;;18.50;51.92;101523.84;5085553;28;19952;-86
2023/05/07 02:11:36;;;;;;;;;;;;;;;18.49;51.93;101521.16;5084816;28;20377;-86
2023/05/07 02:14:02;;;;;;;;;;;;;;;18.60;51.49;101516.22;5084313;28;20447;-86
2023/05/07 02:16:27;;;;;;;;;;;;;;;18.37;51.67;101510.16;5082403;28;20309;-86
2023/05/07 02:18:53;;;;;;;;;;;;;;;18.26;52.02;101489.53;5071403;28;20436;-86
2023/05/07 02:21:18;;;;;;;;;;;;;;;18.28;51.78;101500.16;5071186;28;19913;-85
2023/05/07 02:23:44;;;;;;;;;;;;;;;18.30;51.74;101501.13;5071202;28;20330;-85
2023/05/07 02:26:10;;;;;;;;;;;;;;;18.29;51.80;101499.34;5084398;28;19912;-85
2023/05/07 02:28:36;;;;;;;;;;;;;;;18.23;51.89;101510.59;5086599;28;20393;-85
2023/05/07 02:31:04;;;;;;;;;;;;;;;18.17;52.01;101493.63;5086514;28;19920;-86
2023/05/07 02:33:30;;;;;;;;;;;;;;;18.21;51.82;101482.31;5083411;28;19976;-86
2023/05/07 02:35:55;;;;;;;;;;;;;;;18.19;51.90;101497.22;5062206;28;20387;-85
2023/05/07 02:38:21;;;;;;;;;;;;;;;18.19;51.90;101503.38;5076839;28;19987;-86
2023/05/07 02:40:47;;;;;;;;;;;;;;;18.21;51.69;101482.31;5102975;28;19923;-85
2023/05/07 02:43:12;;;;;;;;;;;;;;;18.18;51.87;101487.47;5103992;28;20005;-86
2023/05/07 02:45:37;;;;;;;;;;;;;;;18.11;52.08;101481.97;5088272;28;19916;-85
2023/05/07 02:48:03;;;;;;;;;;;;;;;18.18;51.74;101488.41;5075448;28;19917;-85
2023/05/07 02:50:29;;;;;;;;;;;;;;;18.12;51.91;101490.81;5087858;28;20678;-85
2023/05/07 02:52:55;;;;;;;;;;;;;;;18.09;51.94;101491.59;5090742;28;20279;-86
2023/05/07 02:55:20;;;;;;;;;;;;;;;18.08;52.04;101504.78;5090395;28;19916;-84
2023/05/07 02:57:46;;;;;;;;;;;;;;;18.11;51.79;101481.97;5090498;28;19920;-86
2023/05/07 03:00:12;;;;;;;;;;;;;;;17.99;52.08;101485.94;5103701;28;19927;-86
2023/05/07 03:02:37;;;;;;;;;;;;;;;18.01;52.12;101485.16;5090433;28;19917;-86
2023/05/07 03:05:03;;;;;;;;;;;;;;;18.06;51.80;101502.06;5056293;28;19939;-86
2023/05/07 03:07:28;;;;;;;;;;;;;;;18.11;51.75;101511.03;5074705;28;19946;-86
2023/05/07 03:09:54;;;;;;;;;;;;;;;18.11;51.73;101486.38;5087282;28;20390;-86
2023/05/07 03:12:20;;;;;;;;;;;;;;;18.13;51.85;101495.25;5074585;28;20404;-86
2023/05/07 03:14:45;;;;;;;;;;;;;;;18.09;51.51;101496.88;5089736;28;19921;-85
2023/05/07 03:17:10;;;;;;;;;;;;;;;18.19;51.45;101539.50;5099291;28;20019;-85
2023/05/07 03:19:36;;;;;;;;;;;;;;;18.30;51.25;101535.50;5078979;28;19972;-85
2023/05/07 03:22:01;;;;;;;;;;;;;;;18.16;51.33;101534.09;5090284;28;19921;-85
2023/05/07 03:24:27;;;;;;;;;;;;;;;18.16;51.05;101539.38;5089171;28;19928;-85
2023/05/07 03:26:52;;;;;;;;;;;;;;;18.16;51.25;101553.53;5096894;28;20344;-85
2023/05/07 03:29:17;;;;;;;;;;;;;;;18.22;51.56;101564.28;5077989;28;19920;-85
2023/05/07 03:31:43;;;;;;;;;;;;;;;18.24;51.28;101581.09;5090231;28;19985;-85
2023/05/07 03:34:09;;;;;;;;;;;;;;;18.25;51.14;101572.34;5088162;28;19931;-85
2023/05/07 03:36:34;;;;;;;;;;;;;;;18.31;51.11;101572.56;5089757;28;20301;-85
2023/05/07 03:38:59;;;;;;;;;;;;;;;18.33;51.37;101577.00;5089715;28;19970;-85
2023/05/07 03:41:25;;;;;;;;;;;;;;;18.35;50.93;101580.59;5089705;28;20306;-85
2023/05/07 03:43:51;;;;;;;;;;;;;;;18.29;50.86;101586.59;5074193;28;20434;-85
2023/05/07 03:46:16;;;;;;;;;;;;;;;18.23;51.46;101587.25;5069448;28;19925;-85
2023/05/07 03:48:42;;;;;;;;;;;;;;;18.32;51.04;101605.19;5073692;28;19967;-85
2023/05/07 03:51:07;;;;;;;;;;;;;;;18.22;51.39;101601.31;5072260;28;20393;-86
2023/05/07 03:53:32;;;;;;;;;;;;;;;18.23;51.38;101591.66;5073780;28;19966;-85
2023/05/07 03:55:58;;;;;;;;;;;;;;;18.21;51.50;101594.22;5089885;28;20326;-86
2023/05/07 03:58:23;;;;;;;;;;;;;;;18.27;51.05;101610.31;5088532;28;19952;-85
2023/05/07 04:00:50;;;;;;;;;;;;;;;18.33;51.15;101606.09;5072097;28;20006;-85
2023/05/07 04:03:15;;;;;;;;;;;;;;;18.30;51.19;101609.53;5081838;28;19963;-85
2023/05/07 04:05:40;;;;;;;;;;;;;;;18.24;51.27;101614.59;5071064;28;19983;-85
2023/05/07 04:08:06;;;;;;;;;;;;;;;18.25;51.20;101621.69;5085860;28;20850;-86
2023/05/07 04:10:31;;;;;;;;;;;;;;;18.18;51.06;101633.78;5067273;28;20427;-85
2023/05/07 04:12:57;;;;;;;;;;;;;;;18.22;51.09;101614.53;5088892;28;19950;-87
2023/05/07 04:15:23;;;;;;;;;;;;;;;18.30;51.16;101622.75;5078334;28;19942;-86
2023/05/07 04:20:51;;;;;;;;;;;;;;;18.22;51.28;101626.84;5091574;28;19924;-86
2023/05/07 04:23:32;;;;;;;;;;;;;;;18.34;51.06;101615.84;5045449;28;19920;-86
2023/05/07 04:26:01;;;;;;;;;;;;;;;18.26;51.11;101615.53;5075449;28;20381;-86
2023/05/07 04:28:48;;;;;;;;;;;;;;;18.16;51.42;101616.97;5066760;28;19921;-86
2023/05/07 04:31:32;;;;;;;;;;;;;;;18.31;50.97;101617.53;5088409;28;19916;-85
2023/05/07 04:37:00;;;;;;;;;;;;;;;18.24;51.52;101614.59;5099181;28;20557;-85
2023/05/07 04:39:54;;;;;;;;;;;;;;;18.31;51.06;101632.50;5050842;28;19916;-85
2023/05/07 04:42:28;;;;;;;;;;;;;;;18.28;51.27;101627.97;5085533;28;20300;-85
2023/05/07 04:45:14;;;;;;;;;;;;;;;18.34;51.07;101637.00;5078668;28;20389;-83
2023/05/07 04:47:41;;;;;;;;;;;;;;;18.37;51.19;101630.06;5101751;28;19970;-83
2023/05/07 04:50:08;;;;;;;;;;;;;;;18.35;51.19;101628.19;5093672;28;20024;-88
2023/05/07 04:52:34;;;;;;;;;;;;;;;18.38;51.55;101638.91;5066239;28;19935;-87
2023/05/07 04:55:09;;;;;;;;;;;;;;;18.36;51.54;101643.25;5093819;28;20424;-88
2023/05/07 04:57:43;;;;;;;;;;;;;;;18.35;51.54;101638.78;5088678;28;19925;-88
2023/05/07 05:00:21;;;;;;;;;;;;;;;18.36;51.51;101635.31;5099778;28;20348;-88
2023/05/07 05:02:51;;;;;;;;;;;;;;;18.37;51.69;101642.38;5069643;28;19957;-88
2023/05/07 05:05:17;;;;;;;;;;;;;;;18.24;52.17;101651.59;5091463;28;19935;-88
2023/05/07 05:07:55;;;;;;;;;;;;;;;18.32;51.71;101655.44;5042472;28;20007;-89
2023/05/07 05:10:36;;;;;;;;;;;;;;;18.27;52.02;101647.34;5054982;28;19921;-90
2023/05/07 05:13:03;;;;;;;;;;;;;;;18.21;52.07;101651.50;5054044;28;20315;-89
2023/05/07 05:15:29;;;;;;;;;;;;;;;18.24;51.97;101652.50;5085079;28;19975;-88
2023/05/07 05:21:06;;;;;;;;;;;;;;;18.24;52.14;101651.59;5091313;28;19977;-88
2023/05/07 05:24:22;;;;;;;;;;;;;;;18.29;51.89;101653.59;5051804;28;20414;-89
2023/05/07 05:27:08;;;;;;;;;;;;;;;18.29;51.94;101653.59;5006543;28;19932;-88
2023/05/07 05:29:34;;;;;;;;;;;;;;;18.24;51.87;101657.78;4973073;28;20003;-89
2023/05/07 05:32:33;;;;;;;;;;;;;;;18.26;52.18;101657.84;5040226;28;20409;-89
2023/05/07 05:35:27;;;;;;;;;;;;;;;18.30;51.78;101663.31;5046021;28;19920;-89
2023/05/07 05:37:53;;;;;;;;;;;;;;;18.31;52.13;101669.53;5042789;28;19928;-86
2023/05/07 05:40:33;;;;;;;;;;;;;;;18.34;51.95;101669.63;5042480;28;20031;-89
2023/05/07 05:42:59;;;;;;;;;;;;;;;18.31;52.12;101677.44;5032744;28;19937;-88
2023/05/07 05:45:25;;;;;;;;;;;;;;;18.34;52.38;101679.31;5043220;28;19921;-90
2023/05/07 05:47:52;;;;;;;;;;;;;;;18.29;52.16;101677.38;5044457;28;20385;-90
2023/05/07 05:50:19;;;;;;;;;;;;;;;18.22;52.10;101677.97;5054792;28;20341;-90
2023/05/07 05:52:45;;;;;;;;;;;;;;;18.21;52.19;101675.31;5049119;28;19921;-90
2023/05/07 05:55:10;;;;;;;;;;;;;;;18.29;52.34;101676.50;5041665;28;20051;-89
2023/05/07 05:57:36;;;;;;;;;;;;;;;18.22;52.31;101682.38;5045300;28;19924;-88
2023/05/07 06:00:02;;;;;;;;;;;;;;;18.21;52.11;101676.19;5044329;28;19943;-88
2023/05/07 06:02:27;;;;;;;;;;;;;;;18.22;52.33;101685.91;5049446;28;20417;-86
2023/05/07 06:04:53;;;;;;;;;;;;;;;18.21;52.46;101680.59;5059298;28;20964;-87
2023/05/07 06:07:18;;;;;;;;;;;;;;;18.22;52.55;101677.97;5049071;28;19993;-86
2023/05/07 06:09:44;;;;;;;;;;;;;;;18.25;52.72;101677.22;5077631;28;19920;-86
2023/05/07 06:12:09;;;;;;;;;;;;;;;18.20;52.51;101681.41;5093785;28;20404;-86
2023/05/07 06:14:34;;;;;;;;;;;;;;;18.14;52.31;101682.09;5077794;28;20398;-86
2023/05/07 06:17:00;;;;;;;;;;;;;;;18.21;52.52;101686.78;5083282;28;19920;-85
2023/05/07 06:19:27;;;;;;;;;;;;;;;18.19;52.56;101680.53;5077660;28;20431;-87
2023/05/07 06:24:37;;;;;;;;;;;;;;;18.19;52.35;101687.56;5079497;28;20056;-87
2023/05/07 06:51:55;;;;;;;;;;;;;;;18.19;52.77;101704.31;5024092;28;20389;-85
2023/05/07 06:54:20;;;;;;;;;;;;;;;18.20;52.66;101705.22;5031599;28;20081;-85
2023/05/07 06:56:47;;;;;;;;;;;;;;;18.16;52.77;101703.28;5031559;28;19917;-85
2023/05/07 06:59:12;;;;;;;;;;;;;;;18.18;52.78;101710.47;5012455;28;19928;-85
2023/05/07 07:01:38;;;;;;;;;;;;;;;18.19;52.59;101708.72;5030876;28;19919;-84
2023/05/07 07:04:03;;;;;;;;;;;;;;;18.20;52.54;101705.22;5026755;28;19930;-85
2023/05/07 07:06:29;;;;;;;;;;;;;;;18.21;52.76;101704.38;5030055;28;20411;-83
2023/05/07 07:08:55;;;;;;;;;;;;;;;18.19;52.68;101706.06;5025836;28;19925;-86
2023/05/07 07:11:20;;;;;;;;;;;;;;;18.18;52.69;101694.59;5029950;28;19924;-84
2023/05/07 07:13:46;;;;;;;;;;;;;;;18.20;52.84;101700.84;5028730;28;20013;-84
2023/05/07 07:16:11;;;;;;;;;;;;;;;18.24;52.62;101697.44;5029768;28;20011;-87
2023/05/07 07:18:36;;;;;;;;;;;;;;;18.24;52.46;101701.84;5033358;28;19953;-84
2023/05/07 07:21:02;;;;;;;;;;;;;;;18.24;52.75;101707.13;5034675;28;19987;-85
2023/05/07 07:23:27;;;;;;;;;;;;;;;18.27;52.93;101707.25;5033550;28;19921;-85
2023/05/07 07:25:53;;;;;;;;;;;;;;;18.25;52.82;101707.19;5033972;28;19917;-85
2023/05/07 07:28:20;;;;;;;;;;;;;;;18.31;52.71;101706.53;5033036;28;20406;-84
2023/05/07 07:30:46;;;;;;;;;;;;;;;18.33;52.86;101707.50;5033164;28;20015;-83
2023/05/07 07:33:15;;;;;;;;;;;;;;;18.34;52.61;101714.56;5025595;28;20019;-83
2023/05/07 07:35:40;;;;;;;;;;;;;;;18.35;52.88;101718.09;5013214;28;19928;-86
2023/05/07 07:38:05;;;;;;;;;;;;;;;18.35;52.70;101720.75;5033277;28;19921;-86
2023/05/07 07:40:31;;;;;;;;;;;;;;;18.32;52.89;101724.19;5032894;28;19927;-86
2023/05/07 07:42:57;;;;;;;;;;;;;;;18.26;52.87;101727.50;5037802;28;19917;-83
2023/05/07 07:45:22;;;;;;;;;;;;;;;18.33;52.99;101727.72;5033035;28;19957;-85
2023/05/07 07:47:48;;;;;;;;;;;;;;;18.40;52.92;101730.66;5015562;28;19917;-84
2023/05/07 07:50:13;;;;;;;;;;;;;;;18.37;53.01;101737.56;5033329;28;20397;-84
2023/05/07 07:52:39;;;;;;;;;;;;;;;18.34;52.85;101734.84;5034132;28;19939;-84
2023/05/07 07:55:04;;;;;;;;;;;;;;;18.37;52.99;101738.50;5044187;28;19932;-83
2023/05/07 07:57:30;;;;;;;;;;;;;;;18.40;52.91;101740.34;5033279;28;20343;-84
2023/05/07 07:59:55;;;;;;;;;;;;;;;18.39;52.92;101741.19;5032661;28;20004;-83
2023/05/07 08:02:21;;;;;;;;;;;;;;;18.40;52.92;101745.66;5033805;28;19927;-83
2023/05/07 08:04:46;;;;;;;;;;;;;;;18.44;52.65;101744.91;5033414;28;19920;-83
2023/05/07 08:07:11;;;;;;;;;;;;;;;18.40;52.84;101745.66;5033344;28;19921;-83
2023/05/07 08:09:37;;;;;;;;;;;;;;;18.44;52.79;101743.16;5032506;28;19921;-84
2023/05/07 08:12:03;;;;;;;;;;;;;;;18.43;52.97;101749.28;5022083;28;20638;-84
2023/05/07 08:14:28;;;;;;;;;;;;;;;18.39;52.99;101747.38;5020956;28;19917;-84
2023/05/07 08:16:54;;;;;;;;;;;;;;;18.36;52.28;101747.25;5018780;28;19922;-84
2023/05/07 08:19:20;;;;;;;;;;;;;;;18.33;53.05;101744.53;5025644;28;19952;-84
2023/05/07 08:21:47;;;;;;;;;;;;;;;18.37;53.10;101741.16;5015789;28;19929;-83
2023/05/07 08:24:13;;;;;;;;;;;;;;;18.41;52.97;101744.78;5024346;28;19929;-83
2023/05/07 08:26:39;;;;;;;;;;;;;;;18.41;53.02;101737.75;5021133;28;20453;-83
2023/05/07 08:29:04;;;;;;;;;;;;;;;18.37;53.03;101741.16;5024511;28;20382;-83
2023/05/07 08:31:30;;;;;;;;;;;;;;;18.41;53.01;101744.78;5028834;28;20004;-85
2023/05/07 08:34:06;;;;;;;;;;;;;;;18.40;53.00;101743.91;5029072;28;19929;-84
2023/05/07 08:36:31;;;;;;;;;;;;;;;18.37;53.18;101735.84;5025111;28;20548;-83
2023/05/07 08:38:57;;;;;;;;;;;;;;;18.38;53.15;101744.69;5018869;28;19953;-84
2023/05/07 08:41:22;;;;;;;;;;;;;;;18.38;52.89;101745.56;5028483;28;20307;-83
2023/05/07 08:43:51;;;;;;;;;;;;;;;18.39;53.15;101747.38;5018514;28;20306;-83
2023/05/07 08:46:17;;;;;;;;;;;;;;;18.37;53.32;101749.09;5030568;28;19925;-83
2023/05/07 08:48:42;;;;;;;;;;;;;;;18.39;53.01;101747.38;5019708;28;20066;-83
2023/05/07 08:51:08;;;;;;;;;;;;;;;18.46;53.08;101752.06;5018867;28;19928;-83
2023/05/07 08:53:34;;;;;;;;;;;;;;;18.43;53.11;101741.34;5000973;28;20340;-82
2023/05/07 08:55:59;;;;;;;;;;;;;;;18.47;53.03;101737.09;5027335;28;19921;-83
2023/05/07 08:58:25;;;;;;;;;;;;;;;18.46;53.17;101741.47;5016017;28;19924;-83
2023/05/07 09:00:50;;;;;;;;;;;;;;;18.47;53.10;101734.44;5016930;28;19917;-82
2023/05/07 09:03:16;;;;;;;;;;;;;;;18.44;52.96;101732.59;5016123;28;19925;-83
2023/05/07 09:05:43;;;;;;;;;;;;;;;18.49;53.16;101738.94;5026254;28;19968;-81
2023/05/07 09:08:09;;;;;;;;;;;;;;;18.48;53.09;101728.31;5015560;28;19917;-83
2023/05/07 09:10:34;;;;;;;;;;;;;;;18.51;53.17;101733.72;5027738;28;19921;-82
2023/05/07 09:13:00;;;;;;;;;;;;;;;18.55;52.93;101734.72;5026064;28;20409;-82
2023/05/07 09:15:26;;;;;;;;;;;;;;;18.50;53.21;101734.56;5022770;28;19932;-83
2023/05/07 09:17:51;;;;;;;;;;;;;;;18.47;52.79;101729.16;5024855;28;19925;-84
2023/05/07 09:20:19;;;;;;;;;;;;;;;18.48;53.01;101737.16;5022596;28;20026;-85
2023/05/07 09:22:45;;;;;;;;;;;;;;;18.54;52.86;101731.16;5014251;28;19917;-84
2023/05/07 09:25:10;;;;;;;;;;;;;;;18.56;52.77;101731.22;5020462;28;19927;-82
2023/05/07 09:27:36;;;;;;;;;;;;;;;18.54;52.78;101730.28;5005047;28;19918;-82
2023/05/07 09:30:06;;;;;;;;;;;;;;;18.60;52.50;101733.16;5022437;28;19922;-83
2023/05/07 09:32:34;;;;;;;;;;;;;;;18.56;53.03;101724.19;5016322;28;19921;-81
2023/05/07 09:34:59;;;;;;;;;;;;;;;18.60;52.90;101726.09;5025738;28;20020;-81
2023/05/07 09:37:25;;;;;;;;;;;;;;;18.65;52.87;101718.34;5013993;28;20009;-82
2023/05/07 09:39:51;;;;;;;;;;;;;;;18.69;53.08;101717.63;5010123;28;19920;-82
2023/05/07 09:42:16;;;;;;;;;;;;;;;18.69;53.04;101720.28;5012979;28;19918;-82
2023/05/07 09:44:45;;;;;;;;;;;;;;;18.65;53.06;101710.41;5011589;28;20008;-83
2023/05/07 09:47:10;;;;;;;;;;;;;;;18.66;53.18;101713.09;5022400;28;19921;-83
2023/05/07 09:49:36;;;;;;;;;;;;;;;18.69;53.21;101705.28;5009823;28;19925;-83
2023/05/07 09:52:02;;;;;;;;;;;;;;;18.72;53.31;101707.13;5012674;28;19927;-82
2023/05/07 09:54:30;;;;;;;;;;;;;;;18.72;53.26;101701.84;5018897;28;19936;-83
2023/05/07 09:56:56;;;;;;;;;;;;;;;18.75;53.24;101704.59;5027264;28;19944;-83
2023/05/07 09:59:21;;;;;;;;;;;;;;;18.75;53.23;101712.53;5011378;28;20276;-82
2023/05/07 10:01:47;;;;;;;;;;;;;;;18.72;53.31;101712.44;5026112;28;20586;-82
2023/05/07 10:04:13;;;;;;;;;;;;;;;18.77;53.18;101710.84;5020680;28;19922;-83
2023/05/07 10:06:38;;;;;;;;;;;;;;;18.77;53.21;101709.94;5011961;28;19921;-83
2023/05/07 10:09:07;;;;;;;;;;;;;;;18.79;52.58;101703.88;5003012;28;19929;-83
2023/05/07 10:11:33;;;;;;;;;;;;;;;18.73;53.30;101693.03;5023713;28;19917;-83
2023/05/07 10:14:01;;;;;;;;;;;;;;;18.77;53.29;101702.91;5012359;28;20016;-83
2023/05/07 10:16:27;;;;;;;;;;;;;;;18.75;53.22;101694.00;5024525;28;19923;-83
2023/05/07 10:18:52;;;;;;;;;;;;;;;18.78;53.19;101695.88;5018321;28;19922;-82
2023/05/07 10:21:18;;;;;;;;;;;;;;;18.81;53.47;101702.19;5012629;28;19917;-83
2023/05/07 10:23:56;;;;;;;;;;;;;;;18.80;53.36;101703.06;5010932;28;19968;-83
2023/05/07 10:26:21;;;;;;;;;;;;;;;18.81;53.36;101683.66;5024172;28;20020;-82
2023/05/07 10:28:49;;;;;;;;;;;;;;;18.83;53.54;101683.72;5024701;28;20012;-83
2023/05/07 10:31:33;;;;;;;;;;;;;;;18.85;53.47;101684.69;5021329;28;19918;-83
2023/05/07 10:33:59;;;;;;;;;;;;;;;18.86;53.86;101682.09;5014652;28;19929;-83
2023/05/07 10:36:25;;;;;;;;;;;;;;;18.85;53.80;101687.34;5025515;28;19928;-83
2023/05/07 10:38:50;;;;;;;;;;;;;;;18.86;53.84;101690.03;5018354;28;19960;-82
2023/05/07 10:41:18;;;;;;;;;;;;;;;18.87;53.95;101688.28;5030338;28;19979;-83
2023/05/07 10:43:44;;;;;;;;;;;;;;;18.87;54.02;101690.94;5029390;28;19917;-82
2023/05/07 10:46:13;;;;;;;;;;;;;;;18.89;54.24;101694.53;5028386;28;19928;-82
2023/05/07 10:48:57;;;;;;;;;;;;;;;18.88;54.21;101690.06;5024973;28;19929;-82
2023/05/07 10:51:22;;;;;;;;;;;;;;;18.90;54.20;101691.03;5029107;28;19980;-83
2023/05/07 10:53:48;;;;;;;;;;;;;;;18.89;54.20;101687.47;5020971;28;19922;-82
2023/05/07 10:56:16;;;;;;;;;;;;;;;18.92;54.24;101690.25;5014717;28;19917;-83
2023/05/07 10:58:42;;;;;;;;;;;;;;;18.90;54.25;101693.66;5023141;28;19925;-83
2023/05/07 11:01:07;;;;;;;;;;;;;;;18.93;54.33;101685.84;5014471;28;19922;-83
2023/05/07 11:03:33;;;;;;;;;;;;;;;18.91;54.26;101685.78;4998622;28;20409;-82
2023/05/07 11:06:15;;;;;;;;;;;;;;;18.94;54.45;101686.75;5016559;28;19924;-82
2023/05/07 11:09:00;;;;;;;;;;;;;;;18.94;54.43;101689.41;5016333;28;19953;-82
2023/05/07 11:11:45;;;;;;;;;;;;;;;18.93;54.56;101688.50;4997489;28;20278;-83
2023/05/07 11:14:11;;;;;;;;;;;;;;;18.97;54.37;101679.81;5010953;28;20022;-83
2023/05/07 11:16:37;;;;;;;;;;;;;;;18.97;54.57;101686.88;4997576;28;20386;-83
2023/05/07 11:19:03;;;;;;;;;;;;;;;18.94;54.63;101684.09;4997730;28;19918;-82
2023/05/07 11:21:35;;;;;;;;;;;;;;;18.96;54.69;101690.34;5005297;28;19974;-83
2023/05/07 11:24:01;;;;;;;;;;;;;;;18.97;54.61;101679.81;5002160;28;19918;-83
2023/05/07 11:26:27;;;;;;;;;;;;;;;18.97;54.49;101682.47;5015399;28;20004;-83
2023/05/07 11:28:53;;;;;;;;;;;;;;;18.99;54.58;101688.72;5015343;28;19918;-83
2023/05/07 11:31:23;;;;;;;;;;;;;;;18.99;54.61;101679.88;5023370;28;19922;-83
2023/05/07 11:33:48;;;;;;;;;;;;;;;19.01;54.39;101689.66;5027412;28;20401;-83
2023/05/07 11:36:14;;;;;;;;;;;;;;;19.02;54.51;101687.91;5025497;28;20004;-83
2023/05/07 11:38:39;;;;;;;;;;;;;;;19.03;54.77;101689.72;5032913;28;20389;-83
2023/05/07 11:41:15;;;;;;;;;;;;;;;19.02;54.68;101691.44;5032938;28;19917;-82
2023/05/07 11:43:57;;;;;;;;;;;;;;;19.03;54.70;101687.97;5023028;28;19929;-83
2023/05/07 11:46:23;;;;;;;;;;;;;;;19.00;54.84;101682.56;5010034;28;19983;-84
2023/05/07 11:48:49;;;;;;;;;;;;;;;19.03;54.78;101682.69;5010583;28;19925;-81
2023/05/07 11:51:18;;;;;;;;;;;;;;;19.05;54.67;101678.34;5027440;28;19921;-83
2023/05/07 11:53:44;;;;;;;;;;;;;;;19.07;54.84;101684.59;5003515;28;19922;-83
2023/05/07 11:56:13;;;;;;;;;;;;;;;19.08;54.86;101693.41;5015885;28;19928;-83
2023/05/07 11:58:39;;;;;;;;;;;;;;;19.06;54.80;101682.78;5023512;28;19921;-83
2023/05/07 12:01:09;;;;;;;;;;;;;;;19.06;54.86;101674.81;5025610;28;19921;-83
2023/05/07 12:03:37;;;;;;;;;;;;;;;19.06;54.86;101673.94;5019463;28;19967;-83
2023/05/07 12:06:02;;;;;;;;;;;;;;;19.10;54.78;101674.09;5024785;28;19922;-84
2023/05/07 12:08:32;;;;;;;;;;;;;;;19.10;54.93;101681.13;5023558;28;20024;-82
2023/05/07 12:10:58;;;;;;;;;;;;;;;19.09;54.92;101679.31;5030175;28;20393;-82
2023/05/07 12:13:24;;;;;;;;;;;;;;;19.12;54.87;101682.09;5010502;28;19924;-83
2023/05/07 12:15:51;;;;;;;;;;;;;;;19.14;54.82;101676.84;5024167;28;19932;-83
2023/05/07 12:18:18;;;;;;;;;;;;;;;19.14;54.76;101679.50;5020504;28;20275;-83
2023/05/07 12:20:44;;;;;;;;;;;;;;;19.13;54.88;101673.28;5007484;28;19948;-83
2023/05/07 12:23:10;;;;;;;;;;;;;;;19.12;54.92;101675.03;5017533;28;19951;-83
2023/05/07 12:25:36;;;;;;;;;;;;;;;19.15;54.90;101676.00;5022930;28;20291;-82
2023/05/07 12:28:12;;;;;;;;;;;;;;;19.15;54.94;101673.34;5025931;28;19925;-82
2023/05/07 12:30:38;;;;;;;;;;;;;;;19.04;54.95;101658.00;5024417;28;19925;-82
2023/05/07 12:33:04;;;;;;;;;;;;;;;19.14;54.87;101669.81;5008511;28;19980;-82
2023/05/07 12:35:30;;;;;;;;;;;;;;;19.22;54.74;101665.66;5025315;28;19925;-82
2023/05/07 12:37:56;;;;;;;;;;;;;;;19.28;54.74;101665.88;5021931;28;19929;-82
2023/05/07 12:40:21;;;;;;;;;;;;;;;19.26;54.80;101667.56;5040209;28;19921;-82
2023/05/07 12:42:47;;;;;;;;;;;;;;;19.25;54.82;101656.91;5035478;28;19976;-82
2023/05/07 12:45:12;;;;;;;;;;;;;;;19.27;54.77;101660.50;5026677;28;19929;-82
2023/05/07 12:47:38;;;;;;;;;;;;;;;19.26;54.87;101656.97;5024647;28;19925;-82
2023/05/07 12:50:06;;;;;;;;;;;;;;;19.27;54.84;101660.50;5030448;28;19925;-83
2023/05/07 12:52:32;;;;;;;;;;;;;;;19.29;54.84;101661.47;5017177;28;19929;-83
2023/05/07 12:54:58;;;;;;;;;;;;;;;19.29;54.70;101659.72;5010506;28;19959;-82
2023/05/07 12:57:23;;;;;;;;;;;;;;;19.29;54.76;101657.06;5021177;28;20388;-83
2023/05/07 12:59:48;;;;;;;;;;;;;;;19.29;54.89;101657.06;5020577;28;20370;-83
2023/05/07 13:02:14;;;;;;;;;;;;;;;19.31;54.80;101659.75;5038398;28;20391;-82
2023/05/07 13:04:39;;;;;;;;;;;;;;;19.30;54.82;101652.66;5021060;28;19972;-81
2023/05/07 13:07:05;;;;;;;;;;;;;;;19.29;54.94;101661.47;5026041;28;20413;-83
2023/05/07 13:09:30;;;;;;;;;;;;;;;19.29;55.03;101653.50;5024669;28;20400;-82
2023/05/07 13:11:56;;;;;;;;;;;;;;;19.25;55.17;101655.16;5020349;28;19998;-82